Aroma Park, Illinois
Current Conditions -  °F | °C
As of 7:55 AM on Friday 31 Oct 2014 (Local Time) from KIKK Reporting Station
Overcast Overcast  
Wind Chill: -2°   Ceiling: 8000
Heat Index:   Visibility: 10mi
Dew Point: -2°   Wind: 20mph
Humidity: 69%   Direction: 320°NW
Pressure: 30.1"   Gusts: 28mph
Location:  41.08°N, 87.81°W
Report Text: KIKK 311255Z AUTO 32017G24KT 10SM SCT031 OVC080 04/M02 A3010 RMK AO2 T00351018
Loading
Personal Weather Stations






























Interactive Weather Map
Tropical Storm Tracking
New forecast layout! Learn more

10-Day Weather Forecast

Advertisements
Track Severe Weather on mobile